Time,TemperatureF,DewpointF,PressureIn,WindDirection,WindDirectionDegrees,WindSpeedMPH,WindSpeedGustMPH,Humidity,HourlyPrecipIn,Conditions,Clouds,dailyrainin,SolarRadiationWatts/m^2,SoftwareType,DateUTC
2013-09-30 00:12:00,43.0,42.0,-100.00,ENE,73,1.0,9.0,97,0.07,,,0.79,0.000000,,2013-09-30 06:12:00,
2013-09-30 00:21:00,43.0,42.0,-100.00,ENE,73,1.0,9.0,97,0.07,,,0.79,0.000000,,2013-09-30 06:21:00,
2013-09-30 00:32:00,43.0,42.0,-100.00,ENE,73,1.0,9.0,97,0.07,,,0.79,0.000000,,2013-09-30 06:32:00,
2013-09-30 00:42:00,43.0,42.0,-100.00,East,81,4.0,7.0,98,0.07,,,0.86,0.000000,,2013-09-30 06:42:00,
2013-09-30 01:12:00,43.0,42.0,-100.00,East,81,4.0,7.0,98,0.07,,,0.86,0.000000,,2013-09-30 07:12:00,
2013-09-30 01:21:00,43.0,42.0,-100.00,East,81,4.0,7.0,98,0.07,,,0.86,0.000000,,2013-09-30 07:21:00,
2013-09-30 01:32:00,43.0,42.0,-100.00,East,81,4.0,7.0,98,0.07,,,0.86,0.000000,,2013-09-30 07:32:00,
2013-09-30 01:42:00,43.0,42.0,-100.00,North,2,1.0,5.0,98,0.09,,,0.95,0.000000,,2013-09-30 07:42:00,
2013-09-30 02:12:00,43.0,42.0,-100.00,North,2,1.0,5.0,98,0.09,,,0.95,0.000000,,2013-09-30 08:12:00,
2013-09-30 02:22:00,43.0,42.0,-100.00,North,2,1.0,5.0,98,0.09,,,0.95,0.000000,,2013-09-30 08:22:00,
2013-09-30 02:32:00,43.0,42.0,-100.00,North,2,1.0,5.0,98,0.09,,,0.95,0.000000,,2013-09-30 08:32:00,
2013-09-30 02:42:00,43.0,43.0,-100.00,SSE,159,3.0,7.0,99,0.14,,,1.08,0.000000,,2013-09-30 08:42:00,
2013-09-30 03:11:00,43.0,43.0,-100.00,SSE,159,3.0,7.0,99,0.14,,,1.08,0.000000,,2013-09-30 09:11:00,
2013-09-30 03:22:00,43.0,43.0,-100.00,SSE,159,3.0,7.0,99,0.14,,,1.08,0.000000,,2013-09-30 09:22:00,
2013-09-30 03:33:00,43.0,43.0,-100.00,SSE,159,3.0,7.0,99,0.14,,,1.08,0.000000,,2013-09-30 09:33:00,
2013-09-30 03:42:00,43.0,43.0,-100.00,ESE,114,5.0,11.0,99,0.13,,,1.18,0.000000,,2013-09-30 09:42:00,
2013-09-30 04:13:00,43.0,43.0,-100.00,ESE,114,5.0,11.0,99,0.13,,,1.18,0.000000,,2013-09-30 10:13:00,
2013-09-30 04:22:00,43.0,43.0,-100.00,ESE,114,5.0,11.0,99,0.13,,,1.18,0.000000,,2013-09-30 10:22:00,
2013-09-30 04:32:00,43.0,43.0,-100.00,ESE,114,5.0,11.0,99,0.13,,,1.18,0.000000,,2013-09-30 10:32:00,
2013-09-30 04:42:00,44.0,44.0,-100.00,SSW,193,2.0,13.0,100,0.02,,,1.20,0.000000,,2013-09-30 10:42:00,
2013-09-30 05:12:00,44.0,44.0,-100.00,SSW,193,2.0,13.0,100,0.02,,,1.20,0.000000,,2013-09-30 11:12:00,
2013-09-30 05:22:00,44.0,44.0,-100.00,SSW,193,2.0,13.0,100,0.02,,,1.20,0.000000,,2013-09-30 11:22:00,
2013-09-30 05:32:00,44.0,44.0,-100.00,SSW,193,2.0,13.0,100,0.02,,,1.20,0.000000,,2013-09-30 11:32:00,
2013-09-30 05:42:00,46.0,46.0,-100.00,SSW,198,10.0,22.0,100,0.08,,,1.28,0.000000,,2013-09-30 11:42:00,
2013-09-30 06:12:00,46.0,46.0,-100.00,SSW,198,10.0,22.0,100,0.08,,,1.28,0.000000,,2013-09-30 12:12:00,
2013-09-30 06:22:00,46.0,46.0,-100.00,SSW,198,10.0,22.0,100,0.08,,,1.28,0.000000,,2013-09-30 12:22:00,
2013-09-30 06:31:00,46.0,46.0,-100.00,SSW,198,10.0,22.0,100,0.08,,,1.28,0.000000,,2013-09-30 12:31:00,
2013-09-30 06:42:00,47.0,47.0,-100.00,WNW,282,8.0,24.0,100,0.18,,,1.46,0.000000,,2013-09-30 12:42:00,
2013-09-30 07:11:00,47.0,47.0,-100.00,WNW,282,8.0,24.0,100,0.18,,,1.46,0.000000,,2013-09-30 13:11:00,
2013-09-30 07:22:00,47.0,47.0,-100.00,WNW,282,8.0,24.0,100,0.18,,,1.46,0.000000,,2013-09-30 13:22:00,
2013-09-30 07:32:00,47.0,47.0,-100.00,WNW,282,8.0,24.0,100,0.18,,,1.46,0.000000,,2013-09-30 13:32:00,
2013-09-30 07:42:00,47.0,43.0,-100.00,North,359,6.0,25.0,87,0.07,,,1.53,0.000000,,2013-09-30 13:42:00,
2013-09-30 08:11:00,47.0,43.0,-100.00,North,359,6.0,25.0,87,0.07,,,1.53,0.000000,,2013-09-30 14:11:00,
2013-09-30 08:22:00,47.0,43.0,-100.00,North,359,6.0,25.0,87,0.07,,,1.53,0.000000,,2013-09-30 14:22:00,
2013-09-30 08:32:00,47.0,43.0,-100.00,North,359,6.0,25.0,87,0.07,,,1.53,0.000000,,2013-09-30 14:32:00,
2013-09-30 08:42:00,47.0,40.0,-100.00,NNE,16,4.0,29.0,77,0.00,,,1.53,5.000000,,2013-09-30 14:42:00,
2013-09-30 09:11:00,47.0,40.0,-100.00,NNE,16,4.0,29.0,77,0.00,,,1.53,5.000000,,2013-09-30 15:11:00,
2013-09-30 09:23:00,47.0,40.0,-100.00,NNE,16,4.0,29.0,77,0.00,,,1.53,5.000000,,2013-09-30 15:23:00,
2013-09-30 09:34:00,47.0,40.0,-100.00,NNE,16,4.0,29.0,77,0.00,,,1.53,5.000000,,2013-09-30 15:34:00,
2013-09-30 09:42:00,47.0,40.0,-100.00,East,95,6.0,14.0,77,0.00,,,-99.99,30.000000,,2013-09-30 15:42:00,
2013-09-30 10:14:00,47.0,40.0,-100.00,East,95,6.0,14.0,77,0.00,,,-99.99,30.000000,,2013-09-30 16:14:00,
2013-09-30 10:24:00,47.0,40.0,-100.00,East,95,6.0,14.0,77,0.00,,,-99.99,30.000000,,2013-09-30 16:24:00,
2013-09-30 10:34:00,47.0,40.0,-100.00,East,95,6.0,14.0,77,0.00,,,-99.99,30.000000,,2013-09-30 16:34:00,
2013-09-30 10:42:00,51.0,43.0,-100.00,South,188,9.0,16.0,75,0.00,,,1.47,267.000000,,2013-09-30 16:42:00,
2013-09-30 11:13:00,51.0,43.0,-100.00,South,188,9.0,16.0,75,0.00,,,1.47,267.000000,,2013-09-30 17:13:00,
2013-09-30 11:22:00,51.0,43.0,-100.00,South,188,9.0,16.0,75,0.00,,,1.47,267.000000,,2013-09-30 17:22:00,
2013-09-30 11:33:00,51.0,43.0,-100.00,South,188,9.0,16.0,75,0.00,,,1.47,267.000000,,2013-09-30 17:33:00,
2013-09-30 11:42:00,54.0,40.0,-100.00,South,184,14.0,25.0,59,0.00,,,1.46,601.000000,,2013-09-30 17:42:00,
2013-09-30 12:12:00,54.0,40.0,-100.00,South,184,14.0,25.0,59,0.00,,,1.46,601.000000,,2013-09-30 18:12:00,
2013-09-30 12:22:00,54.0,40.0,-100.00,South,184,14.0,25.0,59,0.00,,,1.46,601.000000,,2013-09-30 18:22:00,
2013-09-30 12:32:00,54.0,40.0,-100.00,South,184,14.0,25.0,59,0.00,,,1.46,601.000000,,2013-09-30 18:32:00,
2013-09-30 12:42:00,55.0,39.0,-100.00,SSW,206,13.0,23.0,54,0.00,,,1.42,730.000000,,2013-09-30 18:42:00,
2013-09-30 13:12:00,55.0,39.0,-100.00,SSW,206,13.0,23.0,54,0.00,,,1.42,730.000000,,2013-09-30 19:12:00,
2013-09-30 13:22:00,55.0,39.0,-100.00,SSW,206,13.0,23.0,54,0.00,,,1.42,730.000000,,2013-09-30 19:22:00,
2013-09-30 13:32:00,55.0,39.0,-100.00,SSW,206,13.0,23.0,54,0.00,,,1.42,730.000000,,2013-09-30 19:32:00,
2013-09-30 13:42:00,55.0,32.0,-100.00,WSW,245,6.0,23.0,42,0.00,,,1.37,484.000000,,2013-09-30 19:42:00,
2013-09-30 14:13:00,55.0,32.0,-100.00,WSW,245,6.0,23.0,42,0.00,,,1.37,484.000000,,2013-09-30 20:13:00,
2013-09-30 14:23:00,55.0,32.0,-100.00,WSW,245,6.0,23.0,42,0.00,,,1.37,484.000000,,2013-09-30 20:23:00,
2013-09-30 14:33:00,55.0,32.0,-100.00,WSW,245,6.0,23.0,42,0.00,,,1.37,484.000000,,2013-09-30 20:33:00,
2013-09-30 14:42:00,57.0,31.0,-100.00,SW,236,7.0,17.0,37,0.00,,,1.29,682.000000,,2013-09-30 20:42:00,
2013-09-30 15:11:00,57.0,31.0,-100.00,SW,236,7.0,17.0,37,0.00,,,1.29,682.000000,,2013-09-30 21:11:00,
2013-09-30 15:22:00,57.0,31.0,-100.00,SW,236,7.0,17.0,37,0.00,,,1.29,682.000000,,2013-09-30 21:22:00,
2013-09-30 15:34:00,57.0,31.0,-100.00,SW,236,7.0,17.0,37,0.00,,,1.29,682.000000,,2013-09-30 21:34:00,
2013-09-30 15:42:00,59.0,28.0,-100.00,West,266,10.0,23.0,30,0.00,,,1.26,660.000000,,2013-09-30 21:42:00,
2013-09-30 16:13:00,59.0,28.0,-100.00,West,266,10.0,23.0,30,0.00,,,1.26,660.000000,,2013-09-30 22:13:00,
2013-09-30 16:23:00,59.0,28.0,-100.00,West,266,10.0,23.0,30,0.00,,,1.26,660.000000,,2013-09-30 22:23:00,
2013-09-30 16:34:00,59.0,28.0,-100.00,West,266,10.0,23.0,30,0.00,,,1.26,660.000000,,2013-09-30 22:34:00,
2013-09-30 16:42:00,58.0,28.0,-100.00,SSW,206,6.0,18.0,32,0.00,,,1.24,399.000000,,2013-09-30 22:42:00,
2013-09-30 17:12:00,58.0,28.0,-100.00,SSW,206,6.0,18.0,32,0.00,,,1.24,399.000000,,2013-09-30 23:12:00,
2013-09-30 17:23:00,58.0,28.0,-100.00,SSW,206,6.0,18.0,32,0.00,,,1.24,399.000000,,2013-09-30 23:23:00,
2013-09-30 17:34:00,58.0,28.0,-100.00,SSW,206,6.0,18.0,32,0.00,,,1.24,399.000000,,2013-09-30 23:34:00,
2013-09-30 17:42:00,55.0,29.0,-100.00,South,190,9.0,17.0,36,0.00,,,1.18,165.000000,,2013-09-30 23:42:00,
2013-09-30 18:12:00,55.0,29.0,-100.00,South,190,9.0,17.0,36,0.00,,,1.18,165.000000,,2013-10-01 00:12:00,
2013-09-30 18:22:00,55.0,29.0,-100.00,South,190,9.0,17.0,36,0.00,,,1.18,165.000000,,2013-10-01 00:22:00,
2013-09-30 18:32:00,55.0,29.0,-100.00,South,190,9.0,17.0,36,0.00,,,1.18,165.000000,,2013-10-01 00:32:00,
2013-09-30 18:42:00,54.0,29.0,-100.00,SSW,200,5.0,14.0,38,0.00,,,1.12,95.000000,,2013-10-01 00:42:00,
2013-09-30 19:12:00,54.0,29.0,-100.00,SSW,200,5.0,14.0,38,0.00,,,1.12,95.000000,,2013-10-01 01:12:00,
2013-09-30 19:21:00,54.0,29.0,-100.00,SSW,200,5.0,14.0,38,0.00,,,1.12,95.000000,,2013-10-01 01:21:00,
2013-09-30 19:32:00,54.0,29.0,-100.00,SSW,200,5.0,14.0,38,0.00,,,1.12,95.000000,,2013-10-01 01:32:00,
2013-09-30 19:42:00,52.0,28.0,-100.00,NW,311,2.0,9.0,40,0.00,,,1.07,18.000000,,2013-10-01 01:42:00,
2013-09-30 20:12:00,52.0,28.0,-100.00,NW,311,2.0,9.0,40,0.00,,,1.07,18.000000,,2013-10-01 02:12:00,
2013-09-30 20:22:00,52.0,28.0,-100.00,NW,311,2.0,9.0,40,0.00,,,1.07,18.000000,,2013-10-01 02:22:00,
2013-09-30 20:33:00,52.0,28.0,-100.00,NW,311,2.0,9.0,40,0.00,,,1.07,18.000000,,2013-10-01 02:33:00,
2013-09-30 20:42:00,51.0,28.0,-100.00,East,91,2.0,5.0,41,0.00,,,0.99,0.000000,,2013-10-01 02:42:00,
2013-09-30 21:12:00,51.0,28.0,-100.00,East,91,2.0,5.0,41,0.00,,,0.99,0.000000,,2013-10-01 03:12:00,
2013-09-30 21:22:00,51.0,28.0,-100.00,East,91,2.0,5.0,41,0.00,,,0.99,0.000000,,2013-10-01 03:22:00,
2013-09-30 21:34:00,51.0,28.0,-100.00,East,91,2.0,5.0,41,0.00,,,0.99,0.000000,,2013-10-01 03:34:00,
2013-09-30 22:14:00,49.0,30.0,-100.00,East,93,0.0,5.0,48,0.00,,,0.94,0.000000,,2013-10-01 04:14:00,
2013-09-30 22:24:00,49.0,30.0,-100.00,East,93,0.0,5.0,48,0.00,,,0.94,0.000000,,2013-10-01 04:24:00,